Time;durP1;ratioP1;P1;durP2;ratioP2;P2;SDS_P1;SDS_P2;PMS_P1;PMS_P2;Temp;Humidity;BMP_temperature;BMP_pressure;BME280_temperature;BME280_humidity;BME280_pressure;Samples;Min_cycle;Max_cycle;Signal;HPM_P1;HPM_P2
2023/09/10 11:22:03;;;;;;;4.38;3.97;;;;;;;43.61;23.03;99146.16;4951842;28;41507;-78
2023/09/10 11:24:34;;;;;;;4.53;3.83;;;;;;;44.11;21.12;99151.97;4968633;28;43944;-77
2023/09/10 11:27:22;;;;;;;3.97;3.67;;;;;;;44.01;21.23;99150.22;4970649;28;41421;-78
2023/09/10 11:30:10;;;;;;;4.07;3.78;;;;;;;43.47;21.45;99142.47;4937555;28;40101;-77
2023/09/10 11:32:38;;;;;;;4.53;4.13;;;;;;;42.93;22.32;99135.47;4937637;28;40751;-78
2023/09/10 11:35:25;;;;;;;4.63;4.22;;;;;;;43.27;23.13;99123.31;4953331;28;42798;-78
2023/09/10 11:37:56;;;;;;;4.18;3.70;;;;;;;44.85;21.83;99130.34;4954596;28;43024;-79
2023/09/10 11:40:25;;;;;;;3.75;3.45;;;;;;;46.42;20.21;99122.69;4938738;28;40272;-78
2023/09/10 11:42:53;;;;;;;3.90;3.60;;;;;;;47.64;18.41;99147.72;4938375;28;41200;-78
2023/09/10 11:45:22;;;;;;;4.20;3.80;;;;;;;48.72;17.10;99153.97;4971736;28;42721;-79
2023/09/10 11:47:51;;;;;;;4.10;3.65;;;;;;;49.70;16.83;99150.56;4970617;28;42423;-78
2023/09/10 11:50:24;;;;;;;3.92;3.70;;;;;;;51.00;16.75;99142.09;4938191;28;41156;-79
2023/09/10 11:52:52;;;;;;;4.05;3.75;;;;;;;52.36;16.02;99146.72;4938589;28;40311;-77
2023/09/10 11:55:21;;;;;;;4.07;3.78;;;;;;;53.28;14.87;99154.56;4922526;28;43810;-79
2023/09/10 11:57:50;;;;;;;4.13;3.80;;;;;;;54.01;13.81;99159.25;4954788;28;41336;-79
2023/09/10 12:00:19;;;;;;;4.38;4.07;;;;;;;54.11;13.23;99147.28;4970198;28;40023;-78
2023/09/10 12:02:46;;;;;;;4.60;4.30;;;;;;;54.22;13.58;99153.16;4970706;28;42166;-78
2023/09/10 12:05:14;;;;;;;4.32;4.07;;;;;;;54.45;13.70;99141.78;4953470;28;42948;-79
2023/09/10 12:07:44;;;;;;;4.32;3.92;;;;;;;54.58;13.43;99137.53;4970134;28;42056;-79
2023/09/10 12:20:14;;;;;;;3.90;3.65;;;;;;;53.50;14.17;99123.81;5018427;28;43708;-80
2023/09/10 12:22:43;;;;;;;4.03;3.72;;;;;;;53.53;13.59;99126.78;4995576;28;40035;-78
2023/09/10 12:25:10;;;;;;;4.32;4.03;;;;;;;53.40;13.76;99122.44;5011516;28;41978;-79
2023/09/10 12:27:39;;;;;;;3.80;3.42;;;;;;;53.49;13.99;99102.34;5011404;28;43228;-77
2023/09/10 12:30:08;;;;;;;3.45;3.25;;;;;;;53.61;13.34;99102.22;4994975;28;41389;-77
2023/09/10 12:32:36;;;;;;;3.47;3.28;;;;;;;53.41;13.24;99113.56;4995133;28;41263;-77
2023/09/10 12:35:04;;;;;;;3.95;3.70;;;;;;;53.03;13.59;99120.03;4995096;28;41587;-78
2023/09/10 12:37:33;;;;;;;3.67;3.47;;;;;;;52.89;13.97;99107.59;4995602;28;41374;-78
2023/09/10 12:40:02;;;;;;;3.97;3.58;;;;;;;52.65;14.34;99103.81;5015046;28;42693;-78
2023/09/10 12:42:30;;;;;;;3.58;3.38;;;;;;;52.67;14.44;99095.78;5015771;28;40897;-78
2023/09/10 12:44:57;;;;;;;3.75;3.45;;;;;;;52.88;14.17;99094.59;4999056;28;40762;-77
2023/09/10 12:47:25;;;;;;;3.42;3.22;;;;;;;53.27;13.83;99096.28;5015483;28;41964;-78
2023/09/10 12:49:53;;;;;;;4.10;3.75;;;;;;;53.58;13.65;99088.78;4999865;28;42468;-78
2023/09/10 12:52:21;;;;;;;3.55;3.25;;;;;;;53.97;13.56;99087.50;5015473;28;41050;-77
2023/09/10 12:54:50;;;;;;;4.07;3.58;;;;;;;54.06;13.43;99082.38;4998707;28;41464;-78
2023/09/10 12:57:18;;;;;;;3.92;3.55;;;;;;;54.24;13.35;99098.91;5015387;28;43486;-77
2023/09/10 12:59:53;;;;;;;3.60;3.30;;;;;;;54.31;13.35;99091.31;4982778;28;41090;-78
2023/09/10 13:02:23;;;;;;;3.88;3.30;;;;;;;54.22;12.96;99092.78;5015180;28;40998;-78
2023/09/10 13:04:50;;;;;;;3.45;3.15;;;;;;;54.09;13.15;99084.47;4998912;28;41785;-79
2023/09/10 13:07:18;;;;;;;3.97;3.63;;;;;;;53.45;12.66;99086.09;4981306;28;43370;-79
2023/09/10 13:09:46;;;;;;;4.22;3.85;;;;;;;53.17;13.44;99079.06;5032285;28;42618;-78
2023/09/10 13:12:15;;;;;;;3.10;2.90;;;;;;;52.94;13.40;99071.31;5014664;28;41090;-79
2023/09/10 13:14:44;;;;;;;4.28;3.53;;;;;;;52.74;13.51;99064.81;5032121;28;41835;-78
2023/09/10 13:17:12;;;;;;;3.67;3.38;;;;;;;52.42;13.75;99071.72;5014470;28;41643;-78
2023/09/10 13:33:32;;;;;;;3.50;3.15;;;;;;;51.26;14.70;99061.81;5012018;28;42590;-78
2023/09/10 13:35:59;;;;;;;3.67;3.38;;;;;;;51.20;15.02;99043.44;4997380;28;39751;-77
2023/09/10 13:38:27;;;;;;;4.03;3.42;;;;;;;51.11;14.61;99057.72;5033093;28;41600;-77
2023/09/10 13:40:56;;;;;;;3.30;3.05;;;;;;;50.80;15.30;99040.69;5014977;28;41511;-78
2023/09/10 13:43:24;;;;;;;3.83;3.53;;;;;;;50.22;15.64;99051.34;4998130;28;43204;-78
2023/09/10 13:45:51;;;;;;;4.32;3.58;;;;;;;49.54;15.78;99053.84;4998376;28;41404;-78
2023/09/10 13:48:19;;;;;;;3.40;3.10;;;;;;;48.96;16.90;99046.44;5014920;28;41928;-78
2023/09/10 13:50:48;;;;;;;4.18;3.10;;;;;;;48.50;16.73;99035.03;4998616;28;42027;-78
2023/09/10 13:53:15;;;;;;;3.83;3.53;;;;;;;47.93;16.24;99037.50;4998560;28;41345;-77
2023/09/10 14:10:28;;;;;;;4.18;3.58;;;;;;;45.62;18.36;99001.47;4994994;28;41290;-77
2023/09/10 14:12:56;;;;;;;4.10;3.70;;;;;;;45.24;18.81;98998.28;4997141;28;40793;-78
2023/09/10 14:15:23;;;;;;;4.90;3.10;;;;;;;44.93;19.35;98998.22;4996708;28;43350;-77
2023/09/10 14:44:02;;;;;;;3.95;3.55;;;;;;;41.75;20.97;98981.34;5028916;28;44099;-77
2023/09/10 14:46:34;;;;;;;3.47;3.25;;;;;;;41.55;20.82;98971.25;4995825;28;40717;-77
2023/09/10 14:49:01;;;;;;;3.92;3.53;;;;;;;41.36;21.61;98967.56;5014446;28;40353;-79
2023/09/10 14:51:29;;;;;;;3.92;3.40;;;;;;;41.18;21.48;98966.34;4997636;28;40917;-78
2023/09/10 14:53:56;;;;;;;3.42;3.13;;;;;;;40.89;21.27;98962.72;4997569;28;43084;-77
2023/09/10 14:56:24;;;;;;;4.13;3.72;;;;;;;40.54;21.89;98966.59;5031691;28;43210;-77
2023/09/10 14:58:52;;;;;;;3.65;3.33;;;;;;;40.16;21.71;98977.34;5014044;28;40759;-79
2023/09/10 15:01:20;;;;;;;3.35;3.10;;;;;;;39.71;22.10;98969.19;4996797;28;41182;-79
2023/09/10 15:04:04;;;;;;;3.40;3.10;;;;;;;39.21;22.28;98965.41;5013845;28;42675;-77
2023/09/10 15:06:51;;;;;;;3.83;3.53;;;;;;;38.65;22.95;98939.69;5029879;28;42272;-77
2023/09/10 15:09:18;;;;;;;3.33;3.05;;;;;;;38.43;23.43;98954.59;5012902;28;41009;-76
2023/09/10 15:11:46;;;;;;;4.90;3.55;;;;;;;38.08;23.49;98958.09;5012716;28;40741;-79
2023/09/10 15:14:14;;;;;;;4.00;3.60;;;;;;;37.74;23.50;98965.13;5012588;28;43886;-77
2023/09/10 15:16:41;;;;;;;3.50;3.20;;;;;;;37.33;23.44;98950.25;5012883;28;42269;-78
2023/09/10 15:19:14;;;;;;;3.38;3.10;;;;;;;37.09;24.28;98948.97;4996021;28;41305;-78
2023/09/10 15:21:42;;;;;;;3.30;3.00;;;;;;;36.81;24.46;98952.88;5012394;28;41067;-78
2023/09/10 15:24:10;;;;;;;4.90;3.60;;;;;;;36.49;24.51;98950.06;5018110;28;42592;-76
2023/09/10 15:26:39;;;;;;;3.67;3.38;;;;;;;36.15;24.92;98943.91;4990535;28;41306;-77
2023/09/10 15:29:06;;;;;;;3.50;3.20;;;;;;;35.85;25.16;98936.16;4986481;28;39810;-77
2023/09/10 15:31:36;;;;;;;2.80;2.53;;;;;;;35.58;25.55;98925.03;4993532;28;43200;-78
2023/09/10 15:34:06;;;;;;;3.20;2.97;;;;;;;35.47;26.27;98937.03;5011322;28;41554;-77
2023/09/10 15:36:37;;;;;;;3.73;3.17;;;;;;;35.23;25.69;98937.22;4995952;28;41000;-78
2023/09/10 15:39:05;;;;;;;3.87;3.33;;;;;;;34.87;25.64;98910.22;5013291;28;41499;-78
2023/09/10 15:41:33;;;;;;;3.50;3.20;;;;;;;34.80;26.18;98929.66;5012998;28;42620;-77
2023/09/10 15:44:01;;;;;;;4.00;3.33;;;;;;;34.51;26.22;98928.88;5013336;28;42815;-78
2023/09/10 15:46:28;;;;;;;4.27;2.93;;;;;;;34.36;26.36;98925.03;5013379;28;42346;-78
2023/09/10 15:48:59;;;;;;;3.30;3.00;;;;;;;34.19;26.64;98919.47;5013147;28;41086;-77
2023/09/10 15:51:27;;;;;;;3.07;2.77;;;;;;;34.04;26.85;98919.19;4996415;28;42661;-76
2023/09/10 15:53:56;;;;;;;2.90;2.70;;;;;;;33.89;27.51;98919.72;5012797;28;42595;-77
2023/09/10 15:56:24;;;;;;;3.53;3.23;;;;;;;33.71;27.53;98906.13;4996306;28;42610;-78
2023/09/10 15:58:52;;;;;;;8.67;4.67;;;;;;;33.56;27.39;98919.56;4980230;28;40074;-76
2023/09/10 16:01:19;;;;;;;4.40;4.00;;;;;;;33.41;27.70;98909.06;5012635;28;41636;-77
2023/09/10 16:03:47;;;;;;;4.73;4.33;;;;;;;32.97;27.59;98856.50;5030892;28;42953;-77
2023/09/10 16:06:15;;;;;;;3.50;3.20;;;;;;;33.14;27.74;98911.47;4994876;28;41758;-76
2023/09/10 16:08:42;;;;;;;3.30;3.10;;;;;;;33.00;27.68;98905.41;5011788;28;41552;-77
2023/09/10 16:11:13;;;;;;;3.53;3.23;;;;;;;32.91;28.09;98908.75;5028932;28;42625;-77
2023/09/10 16:13:43;;;;;;;3.07;2.87;;;;;;;32.79;28.22;98908.72;4998063;28;41668;-78
2023/09/10 16:16:10;;;;;;;4.90;3.07;;;;;;;32.68;27.98;98906.78;4998655;28;42669;-78
2023/09/10 16:18:38;;;;;;;4.43;3.00;;;;;;;32.55;29.08;98893.31;5015311;28;41041;-76
2023/09/10 16:21:05;;;;;;;3.50;3.20;;;;;;;32.43;29.16;98885.91;5015023;28;41808;-77
2023/09/10 16:23:33;;;;;;;4.13;3.30;;;;;;;32.25;30.00;98869.56;4998503;28;42871;-77
2023/09/10 16:26:01;;;;;;;5.43;3.47;;;;;;;32.22;29.84;98883.72;4998534;28;42117;-76
2023/09/10 16:28:30;;;;;;;3.57;3.27;;;;;;;31.97;30.66;98858.34;5015035;28;41354;-76
2023/09/10 16:30:57;;;;;;;3.93;3.37;;;;;;;31.97;30.62;98880.28;5014759;28;40331;-76
2023/09/10 16:33:25;;;;;;;4.00;3.10;;;;;;;31.77;30.70;98855.91;5007163;28;42679;-76
2023/09/10 16:35:52;;;;;;;3.30;3.00;;;;;;;31.83;30.85;98887.00;5006233;28;42601;-75
2023/09/10 16:38:20;;;;;;;3.90;3.33;;;;;;;31.73;31.40;98882.94;5012719;28;40895;-75
2023/09/10 16:40:48;;;;;;;4.37;3.30;;;;;;;31.63;31.68;98881.78;5013538;28;41937;-76
2023/09/10 16:43:15;;;;;;;4.67;3.77;;;;;;;31.55;31.77;98890.28;4995380;28;42691;-77
2023/09/10 16:45:44;;;;;;;3.97;3.40;;;;;;;31.42;31.71;98874.88;5032648;28;43026;-76
2023/09/10 16:48:12;;;;;;;3.23;2.93;;;;;;;31.30;31.92;98872.06;5019987;28;40217;-77
2023/09/10 16:50:39;;;;;;;6.30;3.17;;;;;;;31.27;32.20;98882.66;4979544;28;40685;-76
2023/09/10 16:53:07;;;;;;;3.50;2.80;;;;;;;31.14;32.43;98871.84;4979561;28;42933;-76
2023/09/10 16:55:36;;;;;;;3.77;3.17;;;;;;;31.07;32.65;98875.44;4995965;28;42556;-76
2023/09/10 16:58:03;;;;;;;3.80;3.20;;;;;;;31.04;32.67;98881.38;4995942;28;40111;-77
2023/09/10 17:00:31;;;;;;;3.17;2.90;;;;;;;30.94;33.03;98886.53;4979372;28;41184;-77
2023/09/10 17:03:00;;;;;;;4.43;2.90;;;;;;;30.83;33.22;98897.38;4979283;28;43296;-76
2023/09/10 17:05:28;;;;;;;4.00;3.30;;;;;;;30.74;33.02;98888.63;5012612;28;43088;-76
2023/09/10 17:08:02;;;;;;;7.17;4.57;;;;;;;30.64;34.05;98888.31;5011649;28;40812;-77
2023/09/10 17:10:43;;;;;;;5.03;4.50;;;;;;;30.49;33.97;98876.84;4993441;28;41688;-76
2023/09/10 17:13:11;;;;;;;4.50;4.10;;;;;;;30.32;33.61;98871.91;4978121;28;41763;-76
2023/09/10 17:15:39;;;;;;;4.30;3.90;;;;;;;30.30;33.74;98882.22;4994477;28;41832;-77
2023/09/10 17:18:08;;;;;;;4.43;3.30;;;;;;;30.11;34.04;98866.84;4994418;28;41330;-76
2023/09/10 17:20:35;;;;;;;4.60;3.27;;;;;;;30.04;34.18;98871.53;4978629;28;41861;-77
2023/09/10 17:35:33;;;;;;;3.30;3.00;;;;;;;29.42;35.05;98873.09;5028955;28;43039;-75
2023/09/10 17:38:02;;;;;;;3.03;2.50;;;;;;;29.28;34.76;98876.88;5012526;28;41236;-76
2023/09/10 17:40:30;;;;;;;2.73;2.53;;;;;;;29.14;35.26;98869.78;4998022;28;41314;-76
2023/09/10 17:42:58;;;;;;;3.30;2.70;;;;;;;28.97;35.30;98853.06;5014856;28;40003;-76
2023/09/10 17:45:30;;;;;;;3.07;2.67;;;;;;;28.94;35.14;98878.84;5013542;28;41383;-76
2023/09/10 17:47:58;;;;;;;2.90;2.30;;;;;;;28.81;35.42;98870.69;4995719;28;43911;-76
2023/09/10 17:50:27;;;;;;;2.67;2.27;;;;;;;28.71;35.63;98872.16;5012430;28;42489;-76
2023/09/10 17:52:55;;;;;;;2.47;2.20;;;;;;;28.59;35.67;98871.94;4994892;28;40625;-76
2023/09/10 17:55:24;;;;;;;3.47;2.77;;;;;;;28.45;35.90;98867.56;5012540;28;42668;-76
2023/09/10 17:57:51;;;;;;;3.67;2.70;;;;;;;28.34;36.36;98876.34;4978782;28;41784;-76
2023/09/10 18:00:19;;;;;;;2.70;2.50;;;;;;;28.19;36.55;98871.94;4978839;28;41371;-76
2023/09/10 18:02:46;;;;;;;3.10;2.57;;;;;;;28.05;36.54;98875.69;4978844;28;39827;-78
2023/09/10 18:05:14;;;;;;;3.27;2.97;;;;;;;27.92;36.86;98875.66;4978303;28;40979;-75
2023/09/10 18:07:42;;;;;;;3.53;3.23;;;;;;;27.77;37.28;98878.56;4993123;28;42825;-78
2023/09/10 18:10:10;;;;;;;3.30;2.90;;;;;;;27.62;37.32;98880.59;4977374;28;41647;-75
2023/09/10 18:12:40;;;;;;;3.27;2.97;;;;;;;27.48;37.84;98878.84;5024597;28;41927;-75
2023/09/10 18:15:08;;;;;;;2.83;2.50;;;;;;;27.33;38.11;98878.97;5013613;28;41196;-77
2023/09/10 18:17:36;;;;;;;2.97;2.67;;;;;;;27.22;38.39;98892.31;5030834;28;43629;-77
2023/09/10 18:20:05;;;;;;;3.83;3.00;;;;;;;27.06;38.69;98885.34;4994904;28;42352;-75
2023/09/10 18:22:32;;;;;;;3.20;2.83;;;;;;;26.93;39.11;98879.84;4995458;28;40040;-76
2023/09/10 18:25:00;;;;;;;3.80;3.20;;;;;;;26.87;39.35;98888.75;5011385;28;40741;-75
2023/09/10 18:27:28;;;;;;;3.83;3.17;;;;;;;26.75;39.68;98891.16;5030085;28;42467;-76
2023/09/10 18:29:59;;;;;;;2.90;2.70;;;;;;;26.64;39.53;98892.56;5013686;28;41172;-75
2023/09/10 18:32:27;;;;;;;3.30;2.93;;;;;;;26.55;40.21;98893.75;5013729;28;41657;-76
2023/09/10 18:34:55;;;;;;;3.63;3.33;;;;;;;26.45;40.29;98893.25;5013672;28;42459;-76
2023/09/10 18:37:22;;;;;;;3.60;3.10;;;;;;;26.35;40.24;98892.72;4995779;28;41919;-76
2023/09/10 18:39:50;;;;;;;3.73;2.67;;;;;;;26.24;40.19;98899.50;5014549;28;41209;-76
2023/09/10 18:42:17;;;;;;;3.77;3.27;;;;;;;26.15;40.67;98897.94;4997722;28;41698;-75
2023/09/10 18:44:45;;;;;;;2.77;2.57;;;;;;;26.04;40.72;98899.31;5014361;28;41689;-76
2023/09/10 18:47:15;;;;;;;3.50;3.20;;;;;;;25.95;41.24;98908.63;4997787;28;41682;-76
2023/09/10 18:49:42;;;;;;;4.70;3.37;;;;;;;25.80;40.95;98896.97;5032082;28;42387;-76
2023/09/10 18:52:12;;;;;;;3.80;3.23;;;;;;;25.73;41.22;98904.19;5013963;28;41949;-76
2023/09/10 18:54:39;;;;;;;3.97;3.10;;;;;;;25.65;41.36;98897.00;5013963;28;41784;-77
2023/09/10 18:57:08;;;;;;;3.33;2.97;;;;;;;25.56;41.89;98900.00;5014321;28;42812;-77
2023/09/10 18:59:35;;;;;;;2.97;2.67;;;;;;;25.48;42.13;98897.38;5013811;28;41927;-77
2023/09/10 19:02:03;;;;;;;3.63;2.70;;;;;;;25.38;42.31;98900.38;5029849;28;42150;-76
2023/09/10 19:04:32;;;;;;;3.07;2.83;;;;;;;25.29;42.73;98904.25;4997710;28;41755;-76
2023/09/10 19:07:00;;;;;;;3.30;3.00;;;;;;;25.20;42.52;98891.81;4994906;28;43235;-76
2023/09/10 19:09:28;;;;;;;3.40;2.70;;;;;;;25.12;42.66;98900.88;5010787;28;42343;-76
2023/09/10 19:11:56;;;;;;;3.03;2.73;;;;;;;25.03;43.23;98891.16;5012521;28;39954;-77
2023/09/10 19:14:23;;;;;;;2.97;2.67;;;;;;;24.90;43.16;98885.53;4979969;28;41819;-77
2023/09/10 19:16:52;;;;;;;3.87;3.10;;;;;;;24.85;43.01;98896.09;5012424;28;42988;-77
2023/09/10 19:19:20;;;;;;;3.20;2.67;;;;;;;24.77;43.25;98885.34;4996257;28;40979;-76
2023/09/10 19:21:49;;;;;;;2.90;2.67;;;;;;;24.65;43.96;98883.06;4996068;28;40484;-76
2023/09/10 19:24:16;;;;;;;4.70;2.90;;;;;;;24.50;44.43;98876.78;5012922;28;42041;-76
2023/09/10 19:26:44;;;;;;;3.63;2.77;;;;;;;24.38;44.07;98869.28;5029725;28;42859;-76
2023/09/10 19:29:11;;;;;;;3.63;3.03;;;;;;;24.42;44.20;98887.72;4996385;28;40990;-76
2023/09/10 19:31:39;;;;;;;3.40;3.10;;;;;;;24.26;44.36;98872.44;4995942;28;41937;-76
2023/09/10 19:34:07;;;;;;;3.07;2.80;;;;;;;23.97;44.38;98840.72;5012594;28;41022;-77
2023/09/10 19:36:35;;;;;;;3.10;2.80;;;;;;;24.20;44.42;98893.97;5011663;28;43418;-75
2023/09/10 19:39:07;;;;;;;3.10;2.80;;;;;;;24.14;45.53;98894.69;5013238;28;42305;-76
2023/09/10 19:41:34;;;;;;;3.17;2.70;;;;;;;24.08;45.04;98892.72;5029828;28;41041;-75
2023/09/10 19:44:02;;;;;;;4.53;3.13;;;;;;;24.00;45.01;98893.59;4996791;28;41188;-75
2023/09/10 19:46:30;;;;;;;4.33;2.93;;;;;;;23.86;45.21;98883.56;5030262;28;42875;-76
2023/09/10 19:48:58;;;;;;;3.20;2.90;;;;;;;23.77;45.61;98882.78;4996553;28;41112;-76
2023/09/10 19:51:25;;;;;;;3.17;2.67;;;;;;;23.75;45.68;98892.06;4996308;28;40916;-76
2023/09/10 19:53:53;;;;;;;3.93;2.80;;;;;;;23.66;45.88;98896.69;5013356;28;41936;-76
2023/09/10 19:56:22;;;;;;;3.67;2.30;;;;;;;23.55;46.41;98883.59;5012404;28;41498;-76
2023/09/10 19:59:06;;;;;;;3.70;2.77;;;;;;;23.49;46.49;98885.09;5030289;28;42130;-76
2023/09/10 20:01:34;;;;;;;4.20;2.57;;;;;;;23.46;46.25;98900.84;4996590;28;41044;-76
2023/09/10 20:04:02;;;;;;;3.40;2.80;;;;;;;23.39;47.23;98891.75;4993279;28;41504;-77
2023/09/10 20:06:30;;;;;;;2.87;2.57;;;;;;;23.35;47.19;98898.53;5008966;28;43314;-77
2023/09/10 20:08:58;;;;;;;4.67;2.97;;;;;;;23.28;46.79;98893.81;4991957;28;42870;-76
2023/09/10 20:11:27;;;;;;;2.97;2.67;;;;;;;23.18;47.18;98887.78;4991817;28;39683;-76
2023/09/10 20:13:56;;;;;;;3.70;3.00;;;;;;;23.19;46.85;98904.84;4975852;28;41275;-76
2023/09/10 20:16:24;;;;;;;3.70;2.57;;;;;;;23.12;47.25;98898.47;4991634;28;41655;-76
2023/09/10 20:18:52;;;;;;;3.80;2.47;;;;;;;22.97;47.21;98878.59;4991722;28;42938;-77
2023/09/10 20:21:20;;;;;;;2.57;2.30;;;;;;;22.99;47.23;98898.19;4991836;28;41963;-76
2023/09/10 20:23:47;;;;;;;2.93;2.67;;;;;;;22.73;47.78;98865.97;4975840;28;41140;-76
2023/09/10 20:26:15;;;;;;;4.00;3.10;;;;;;;22.88;47.74;98902.06;5008985;28;42404;-76
2023/09/10 20:28:44;;;;;;;4.33;2.90;;;;;;;22.81;47.79;98901.06;4975585;28;42254;-76
2023/09/10 20:31:11;;;;;;;3.73;3.07;;;;;;;22.50;48.07;98863.97;4991596;28;41868;-76
2023/09/10 20:33:39;;;;;;;2.87;2.53;;;;;;;22.68;47.78;98901.56;4991956;28;41706;-77
2023/09/10 20:36:07;;;;;;;3.07;2.53;;;;;;;22.62;47.92;98890.63;4974823;28;42753;-76
2023/09/10 20:38:35;;;;;;;2.90;2.60;;;;;;;22.53;48.19;98897.88;4991779;28;41773;-76
2023/09/10 20:41:10;;;;;;;2.87;2.57;;;;;;;22.50;48.33;98899.06;4992090;28;39591;-76
2023/09/10 20:43:38;;;;;;;3.20;2.60;;;;;;;22.39;48.55;98891.31;5028731;28;41540;-76
2023/09/10 20:46:08;;;;;;;2.57;2.37;;;;;;;22.38;48.71;98900.41;5028436;28;43517;-76
2023/09/10 20:48:36;;;;;;;3.07;2.67;;;;;;;22.33;48.76;98900.09;5011490;28;42212;-76
2023/09/10 20:51:05;;;;;;;3.13;2.57;;;;;;;22.24;48.58;98893.03;5012533;28;40778;-76
2023/09/10 20:53:34;;;;;;;3.43;2.53;;;;;;;22.22;48.83;98905.84;5012241;28;42043;-76
2023/09/10 20:56:01;;;;;;;4.13;3.00;;;;;;;22.13;49.34;98896.06;5011964;28;42193;-76
2023/09/10 20:58:30;;;;;;;2.97;2.67;;;;;;;22.10;49.31;98901.78;5012164;28;42203;-77
2023/09/10 21:00:59;;;;;;;3.43;2.70;;;;;;;21.90;49.50;98873.41;4998549;28;39842;-77
2023/09/10 21:03:30;;;;;;;3.27;2.93;;;;;;;21.93;49.77;98883.88;5033621;28;41706;-76
2023/09/10 21:05:58;;;;;;;2.93;2.53;;;;;;;21.88;49.52;98879.81;5014079;28;43503;-76
2023/09/10 21:08:26;;;;;;;3.17;2.53;;;;;;;21.82;49.80;98879.66;5031745;28;43019;-76
2023/09/10 21:10:53;;;;;;;3.50;3.17;;;;;;;21.81;49.82;98881.50;5031738;28;41014;-76
2023/09/10 21:13:21;;;;;;;3.30;3.00;;;;;;;21.76;50.17;98891.94;5032563;28;41797;-76
2023/09/10 21:15:48;;;;;;;2.60;2.40;;;;;;;21.71;49.91;98886.22;4997584;28;41921;-76
2023/09/10 21:18:17;;;;;;;3.30;2.50;;;;;;;21.52;50.36;98873.84;4998724;28;43308;-76
2023/09/10 21:20:46;;;;;;;3.43;3.10;;;;;;;21.48;50.42;98869.81;4997790;28;41019;-76
2023/09/10 21:23:14;;;;;;;3.20;2.90;;;;;;;21.55;50.53;98893.41;5004478;28;41835;-76
2023/09/10 21:25:41;;;;;;;3.63;3.00;;;;;;;21.47;50.95;98895.06;5011571;28;42706;-76
2023/09/10 21:28:09;;;;;;;3.40;2.70;;;;;;;21.41;51.11;98886.78;5012049;28;42214;-76
2023/09/10 21:30:37;;;;;;;3.70;2.90;;;;;;;21.36;51.40;98891.84;4994110;28;39654;-76
2023/09/10 21:33:05;;;;;;;4.83;3.17;;;;;;;21.28;51.43;98883.72;4978649;28;41793;-76
2023/09/10 21:35:33;;;;;;;3.40;2.90;;;;;;;21.24;51.47;98882.38;4977742;28;41691;-76
2023/09/10 21:38:02;;;;;;;4.20;2.93;;;;;;;21.20;51.84;98886.38;4979456;28;41286;-76
2023/09/10 21:40:30;;;;;;;4.00;2.80;;;;;;;21.14;51.89;98887.88;4994754;28;40099;-75
2023/09/10 21:42:57;;;;;;;3.70;2.87;;;;;;;21.08;52.66;98888.50;4979163;28;40733;-76
2023/09/10 21:45:25;;;;;;;3.50;3.20;;;;;;;21.04;52.45;98892.50;4962909;28;41760;-76
2023/09/10 21:47:52;;;;;;;3.83;2.70;;;;;;;20.99;52.48;98895.69;4995358;28;42103;-76
2023/09/10 21:50:20;;;;;;;3.00;2.70;;;;;;;20.93;52.38;98885.56;4994800;28;39880;-75
2023/09/10 21:52:47;;;;;;;3.50;2.80;;;;;;;20.78;52.58;98865.63;4978260;28;40705;-76
2023/09/10 21:55:17;;;;;;;3.70;2.73;;;;;;;20.86;52.70;98881.84;4962537;28;42780;-76
2023/09/10 21:57:44;;;;;;;4.93;3.27;;;;;;;20.82;53.01;98883.16;5013162;28;42059;-76
2023/09/10 22:00:13;;;;;;;3.13;2.80;;;;;;;20.78;53.10;98876.38;4994917;28;40445;-76
2023/09/10 22:02:41;;;;;;;3.53;3.10;;;;;;;20.73;53.21;98882.28;4962850;28;41105;-76
2023/09/10 22:05:09;;;;;;;4.40;2.87;;;;;;;20.64;53.34;98874.31;4994400;28;42553;-75
2023/09/10 22:07:37;;;;;;;4.07;2.93;;;;;;;20.64;53.40;98885.94;4993478;28;42668;-75
2023/09/10 22:10:05;;;;;;;3.60;2.90;;;;;;;20.58;53.91;98893.78;4977545;28;39626;-76
2023/09/10 22:12:34;;;;;;;3.57;3.27;;;;;;;20.42;53.81;98865.75;4977878;28;40795;-76
2023/09/10 22:15:08;;;;;;;3.30;2.93;;;;;;;20.46;53.93;98886.97;4977610;28;41585;-76
2023/09/10 22:17:36;;;;;;;3.40;3.10;;;;;;;20.41;53.92;98890.97;4977778;28;42786;-75
2023/09/10 22:20:07;;;;;;;3.40;2.80;;;;;;;20.20;54.11;98863.53;4993715;28;41108;-76
2023/09/10 22:22:35;;;;;;;4.03;3.20;;;;;;;20.32;54.29;98880.28;4977730;28;41745;-76
2023/09/10 22:25:03;;;;;;;3.67;2.80;;;;;;;20.26;54.32;98876.38;4993959;28;42939;-76
2023/09/10 22:27:31;;;;;;;4.00;3.40;;;;;;;20.22;55.24;98869.63;4973174;28;42514;-76
2023/09/10 22:30:01;;;;;;;3.80;3.30;;;;;;;20.17;54.89;98874.59;4990741;28;41443;-76
2023/09/10 22:32:28;;;;;;;3.80;3.40;;;;;;;20.11;55.17;98874.41;5011725;28;42388;-76
2023/09/10 22:34:56;;;;;;;3.40;3.10;;;;;;;20.04;54.97;98875.00;4977730;28;41701;-76
2023/09/10 22:37:23;;;;;;;3.17;2.93;;;;;;;20.03;55.46;98872.47;4994059;28;42883;-76
2023/09/10 22:39:51;;;;;;;3.53;2.73;;;;;;;19.98;55.67;98869.41;4994747;28;40532;-76
2023/09/10 22:42:18;;;;;;;4.77;2.93;;;;;;;19.95;55.96;98867.03;4994753;28;41165;-76
2023/09/10 22:44:46;;;;;;;3.30;3.00;;;;;;;19.80;56.26;98849.75;4978664;28;43384;-76
2023/09/10 22:47:15;;;;;;;4.50;3.00;;;;;;;19.85;56.32;98860.91;4994113;28;42718;-76
2023/09/10 22:49:42;;;;;;;3.03;2.73;;;;;;;19.86;56.28;98863.44;4977061;28;40658;-76
2023/09/10 22:52:10;;;;;;;3.50;3.00;;;;;;;19.65;56.57;98839.56;4993003;28;41925;-76
2023/09/10 22:54:37;;;;;;;4.73;3.20;;;;;;;19.75;56.17;98865.50;4993672;28;42069;-76
2023/09/10 22:57:05;;;;;;;3.43;3.10;;;;;;;19.73;56.34;98863.81;4993215;28;41342;-76
2023/09/10 22:59:33;;;;;;;3.37;2.87;;;;;;;19.68;56.69;98866.13;4993463;28;40941;-76
2023/09/10 23:01:59;;;;;;;2.60;2.40;;;;;;;19.64;56.83;98856.69;4977153;28;40410;-77
2023/09/10 23:04:28;;;;;;;4.37;3.20;;;;;;;19.59;56.89;98861.66;4977105;28;41696;-76
2023/09/10 23:06:56;;;;;;;3.03;2.50;;;;;;;19.45;56.76;98851.41;4977178;28;41993;-76
2023/09/10 23:09:23;;;;;;;3.30;2.97;;;;;;;19.52;57.09;98865.97;4977392;28;41098;-76
2023/09/10 23:11:51;;;;;;;3.23;2.93;;;;;;;19.47;57.36;98862.00;5010713;28;42489;-76
2023/09/10 23:14:19;;;;;;;6.43;3.53;;;;;;;19.43;57.60;98868.66;5011159;28;42663;-75
2023/09/10 23:16:46;;;;;;;4.00;2.70;;;;;;;19.37;57.31;98862.06;5010984;28;42545;-76
2023/09/10 23:19:14;;;;;;;3.80;2.83;;;;;;;19.09;57.57;98826.34;4977032;28;39970;-76
2023/09/10 23:21:43;;;;;;;3.53;3.23;;;;;;;19.30;57.60;98871.72;4992484;28;41547;-75
2023/09/10 23:24:11;;;;;;;3.33;3.00;;;;;;;19.10;57.85;98843.28;4992914;28;41649;-76
2023/09/10 23:26:40;;;;;;;3.60;2.93;;;;;;;19.20;57.68;98868.25;4992304;28;41419;-75
2023/09/10 23:29:07;;;;;;;3.40;2.80;;;;;;;19.17;58.02;98868.53;4993668;28;41851;-76
2023/09/10 23:31:35;;;;;;;3.97;3.17;;;;;;;19.17;58.02;98860.47;4992688;28;41601;-76
2023/09/10 23:34:02;;;;;;;3.20;2.87;;;;;;;19.08;58.64;98861.38;4993003;28;42759;-76
2023/09/10 23:36:30;;;;;;;5.70;3.43;;;;;;;19.10;58.47;98864.78;5010114;28;42498;-75
2023/09/10 23:38:59;;;;;;;3.13;2.83;;;;;;;19.01;58.43;98851.25;4976452;28;41857;-76
2023/09/10 23:41:27;;;;;;;3.10;2.67;;;;;;;19.05;58.63;98867.03;5010610;28;41773;-76
2023/09/10 23:43:54;;;;;;;3.60;2.97;;;;;;;19.02;59.36;98852.94;4993782;28;42710;-76
2023/09/10 23:46:22;;;;;;;3.57;2.70;;;;;;;19.01;59.62;98850.41;4993352;28;41551;-76
2023/09/10 23:48:50;;;;;;;4.93;3.60;;;;;;;18.92;60.74;98830.66;5010371;28;40795;-76
2023/09/10 23:51:17;;;;;;;3.60;2.80;;;;;;;18.98;62.00;98832.75;4961239;28;40678;-75
2023/09/10 23:53:45;;;;;;;4.63;4.20;;;;;;;18.97;63.26;98830.22;4977759;28;42588;-76
2023/09/10 23:56:14;;;;;;;4.30;3.73;;;;;;;18.96;63.29;98821.31;4993578;28;41415;-76
2023/09/10 23:58:41;;;;;;;4.13;3.53;;;;;;;18.95;62.53;98830.38;4993966;28;41858;-75
